createdAt,value
2023-02-17T00:01:19.943Z,11.15
2023-02-17T00:03:49.524Z,11.15
2023-02-17T00:06:19.727Z,11.18
2023-02-17T00:08:46.830Z,11.19
2023-02-17T00:11:14.495Z,11.18
2023-02-17T00:13:42.431Z,11.20
2023-02-17T00:16:10.841Z,11.23
2023-02-17T00:18:37.465Z,11.23
2023-02-17T00:21:13.427Z,11.24
2023-02-17T00:23:39.932Z,11.26
2023-02-17T00:26:07.996Z,11.30
2023-02-17T00:28:34.796Z,11.32
2023-02-17T00:31:09.646Z,11.36
2023-02-17T00:33:36.613Z,11.38
2023-02-17T00:36:09.103Z,11.34
2023-02-17T00:38:35.654Z,11.42
2023-02-17T00:41:02.413Z,11.46
2023-02-17T00:43:29.373Z,11.46
2023-02-17T00:45:55.940Z,11.47
2023-02-17T00:48:22.927Z,11.48
2023-02-17T00:50:49.668Z,11.44
2023-02-17T00:53:16.196Z,11.50
2023-02-17T00:55:42.735Z,11.51
2023-02-17T00:58:09.278Z,11.50
2023-02-17T01:00:35.792Z,11.50
2023-02-17T01:03:02.377Z,11.52
2023-02-17T01:05:28.872Z,11.52
2023-02-17T01:07:55.932Z,11.51
2023-02-17T01:10:22.595Z,11.51
2023-02-17T01:12:49.187Z,11.54
2023-02-17T01:15:15.771Z,11.52
2023-02-17T01:17:42.284Z,11.56
2023-02-17T01:20:09.322Z,11.46
2023-02-17T01:22:38.700Z,11.54
2023-02-17T01:25:05.354Z,11.58
2023-02-17T01:27:31.987Z,11.58
2023-02-17T01:29:58.484Z,11.55
2023-02-17T01:32:25.327Z,11.54
2023-02-17T01:34:51.792Z,11.55
2023-02-17T01:37:18.254Z,11.55
2023-02-17T01:39:44.737Z,11.53
2023-02-17T01:42:16.755Z,11.59
2023-02-17T01:45:27.786Z,11.56
2023-02-17T01:47:59.710Z,11.56
2023-02-17T01:50:45.020Z,11.56
2023-02-17T01:53:14.782Z,11.55
2023-02-17T01:55:42.446Z,11.56
2023-02-17T01:58:13.863Z,11.54
2023-02-17T02:00:40.852Z,11.55
2023-02-17T02:03:10.714Z,11.62
2023-02-17T02:05:39.631Z,11.63
2023-02-17T02:08:06.651Z,11.64
2023-02-17T02:10:33.387Z,11.62
2023-02-17T02:12:59.946Z,11.51
2023-02-17T02:15:33.416Z,11.69
2023-02-17T02:18:09.089Z,11.68
2023-02-17T02:20:47.687Z,11.69
2023-02-17T02:23:45.385Z,11.69
2023-02-17T02:26:23.992Z,11.71
2023-02-17T02:29:08.308Z,11.69
2023-02-17T02:31:51.414Z,11.74
2023-02-17T02:34:23.215Z,11.78
2023-02-17T02:37:07.629Z,11.78
2023-02-17T02:39:38.735Z,11.79
2023-02-17T02:42:08.647Z,11.79
2023-02-17T02:44:35.153Z,11.82
2023-02-17T02:47:26.226Z,11.80
2023-02-17T02:49:52.856Z,11.81
2023-02-17T02:52:28.618Z,11.84
2023-02-17T02:55:24.089Z,11.85
2023-02-17T02:58:11.377Z,11.81
2023-02-17T03:00:54.983Z,11.81
2023-02-17T03:03:30.814Z,11.85
2023-02-17T03:06:10.769Z,11.86
2023-02-17T03:08:46.306Z,11.84
2023-02-17T03:11:13.061Z,11.77
2023-02-17T03:13:41.166Z,11.82
2023-02-17T03:16:08.597Z,11.80
2023-02-17T03:18:35.900Z,11.82
2023-02-17T03:21:10.591Z,11.82
2023-02-17T03:23:37.106Z,11.86
2023-02-17T03:26:03.924Z,11.86
2023-02-17T03:28:31.359Z,11.84
2023-02-17T03:30:57.847Z,11.84
2023-02-17T03:33:24.363Z,11.83
2023-02-17T03:35:50.934Z,11.84
2023-02-17T03:38:17.412Z,11.85
2023-02-17T03:40:43.903Z,11.81
2023-02-17T03:43:10.611Z,11.87
2023-02-17T03:45:37.911Z,11.83
2023-02-17T03:48:04.540Z,11.90
2023-02-17T03:50:31.369Z,11.90
2023-02-17T03:52:57.884Z,11.87
2023-02-17T03:55:24.319Z,11.89
2023-02-17T03:57:50.794Z,11.91
2023-02-17T04:00:17.510Z,11.93
2023-02-17T04:02:44.374Z,11.93
2023-02-17T04:05:10.994Z,11.90
2023-02-17T04:07:37.474Z,11.88
2023-02-17T04:10:06.293Z,11.89
2023-02-17T04:12:33.735Z,11.90
2023-02-17T04:15:00.288Z,11.90
2023-02-17T04:17:26.799Z,11.91
2023-02-17T04:19:53.331Z,11.92
2023-02-17T04:22:19.867Z,11.92
2023-02-17T04:24:46.554Z,11.91
2023-02-17T04:27:13.209Z,11.90
2023-02-17T04:29:39.689Z,11.91
2023-02-17T04:32:06.196Z,11.91
2023-02-17T04:34:32.784Z,11.86
2023-02-17T04:36:59.261Z,11.90
2023-02-17T04:39:25.734Z,11.91
2023-02-17T04:41:52.180Z,11.92
2023-02-17T04:44:18.788Z,11.88
2023-02-17T04:46:45.341Z,11.94
2023-02-17T04:49:11.849Z,11.94
2023-02-17T04:51:38.482Z,11.93
2023-02-17T04:54:05.001Z,11.92
2023-02-17T04:56:31.508Z,11.93
2023-02-17T04:58:58.089Z,11.92
2023-02-17T05:01:24.624Z,11.89
2023-02-17T05:03:51.145Z,11.85
2023-02-17T05:06:17.720Z,11.82
2023-02-17T05:08:44.356Z,11.79
2023-02-17T05:11:10.885Z,11.75
2023-02-17T05:13:37.359Z,11.83
2023-02-17T05:16:04.285Z,11.82
2023-02-17T05:18:30.868Z,11.82
2023-02-17T05:20:57.390Z,11.84
2023-02-17T05:23:23.957Z,11.84
2023-02-17T05:25:50.544Z,11.82
2023-02-17T05:28:17.125Z,11.83
2023-02-17T05:30:43.590Z,11.83
2023-02-17T05:33:10.106Z,11.84
2023-02-17T05:35:36.600Z,11.85
2023-02-17T05:38:03.080Z,11.85
2023-02-17T05:40:29.769Z,11.85
2023-02-17T05:42:56.252Z,11.85
2023-02-17T05:45:22.827Z,11.85
2023-02-17T05:47:49.346Z,11.85
2023-02-17T05:50:15.852Z,11.85
2023-02-17T05:52:42.337Z,11.84
2023-02-17T05:55:08.849Z,11.84
2023-02-17T05:57:35.503Z,11.83
2023-02-17T06:00:02.230Z,11.85
2023-02-17T06:02:28.719Z,11.83
2023-02-17T06:04:55.218Z,11.85
2023-02-17T06:07:21.734Z,11.80
2023-02-17T06:09:48.158Z,11.87
2023-02-17T06:12:14.678Z,11.89
2023-02-17T06:14:41.439Z,11.88
2023-02-17T06:17:08.397Z,11.92
2023-02-17T06:19:34.888Z,11.95
2023-02-17T06:22:01.314Z,11.98
2023-02-17T06:24:27.825Z,11.99
2023-02-17T06:26:54.418Z,11.99
2023-02-17T06:29:20.958Z,12.02
2023-02-17T06:31:47.497Z,12.03
2023-02-17T06:34:14.096Z,12.02
2023-02-17T06:36:40.573Z,12.02
2023-02-17T06:39:07.043Z,12.07
2023-02-17T06:41:33.656Z,12.09
2023-02-17T06:44:00.160Z,12.12
2023-02-17T06:46:26.574Z,12.13
2023-02-17T06:48:53.058Z,12.14
2023-02-17T06:51:19.479Z,12.17
2023-02-17T06:53:45.926Z,12.15
2023-02-17T06:56:12.326Z,12.17
2023-02-17T06:58:38.815Z,12.17
2023-02-17T07:01:05.489Z,12.18
2023-02-17T07:03:32.061Z,12.20
2023-02-17T07:05:59.580Z,12.23
2023-02-17T07:08:26.129Z,12.19
2023-02-17T07:10:52.721Z,12.23
2023-02-17T07:13:19.261Z,12.23
2023-02-17T07:15:45.683Z,12.04
2023-02-17T07:18:12.122Z,12.22
2023-02-17T07:20:39.373Z,12.21
2023-02-17T07:23:05.910Z,12.22
2023-02-17T07:25:32.411Z,12.26
2023-02-17T07:28:00.164Z,12.25
2023-02-17T07:30:26.684Z,12.31
2023-02-17T07:32:53.147Z,12.32
2023-02-17T07:35:19.639Z,12.36
2023-02-17T07:37:46.077Z,12.37
2023-02-17T07:40:12.849Z,12.38
2023-02-17T07:42:39.425Z,12.40
2023-02-17T07:45:07.172Z,12.40
2023-02-17T07:47:33.727Z,12.41
2023-02-17T07:50:00.253Z,12.42
2023-02-17T07:52:26.727Z,12.43
2023-02-17T07:54:53.205Z,12.45
2023-02-17T07:57:19.655Z,12.47
2023-02-17T07:59:47.445Z,12.48
2023-02-17T08:02:14.154Z,12.46
2023-02-17T08:04:40.824Z,12.53
2023-02-17T08:07:07.403Z,12.50
2023-02-17T08:09:52.866Z,12.56
2023-02-17T08:12:39.166Z,12.54
2023-02-17T08:15:08.405Z,12.57
2023-02-17T08:17:35.633Z,12.59
2023-02-17T08:20:08.705Z,12.61
2023-02-17T08:22:36.266Z,12.60
2023-02-17T08:25:05.867Z,12.58
2023-02-17T08:27:32.619Z,12.66
2023-02-17T08:29:59.292Z,12.73
2023-02-17T08:32:26.189Z,12.77
2023-02-17T08:34:56.732Z,12.84
2023-02-17T08:37:23.424Z,12.91
2023-02-17T08:39:50.161Z,13.00
2023-02-17T08:42:17.836Z,13.08
2023-02-17T08:44:44.722Z,13.14
2023-02-17T08:47:11.694Z,13.24
2023-02-17T08:49:38.314Z,13.31
2023-02-17T08:52:04.969Z,13.37
2023-02-17T08:54:33.445Z,13.41
2023-02-17T08:57:00.148Z,13.44
2023-02-17T08:59:26.934Z,13.47
2023-02-17T09:01:56.374Z,13.53
2023-02-17T09:04:23.184Z,13.58
2023-02-17T09:06:51.786Z,13.61
2023-02-17T09:09:22.496Z,13.72
2023-02-17T09:11:49.643Z,13.78
2023-02-17T09:14:16.557Z,13.78
2023-02-17T09:16:43.251Z,13.83
2023-02-17T09:19:10.283Z,13.92
2023-02-17T09:21:36.928Z,13.97
2023-02-17T09:24:03.803Z,14.02
2023-02-17T09:26:30.630Z,14.07
2023-02-17T09:28:57.984Z,14.13
2023-02-17T09:31:27.003Z,14.17
2023-02-17T09:33:55.115Z,14.25
2023-02-17T09:36:25.300Z,14.33
2023-02-17T09:38:53.259Z,14.44
2023-02-17T09:41:27.156Z,14.53
2023-02-17T09:43:55.430Z,14.56
2023-02-17T09:46:25.046Z,14.64
2023-02-17T09:48:56.607Z,14.68
2023-02-17T09:52:11.471Z,14.78
2023-02-17T09:54:53.565Z,14.84
2023-02-17T09:57:27.212Z,14.89
2023-02-17T10:00:14.434Z,14.97
2023-02-17T10:03:01.058Z,15.05
2023-02-17T10:05:34.955Z,15.03
2023-02-17T10:08:11.600Z,15.13
2023-02-17T10:10:46.041Z,15.20
2023-02-17T10:13:17.329Z,15.25
2023-02-17T10:15:49.797Z,15.29
2023-02-17T10:18:30.647Z,15.35
2023-02-17T10:21:02.170Z,15.41
2023-02-17T10:23:29.692Z,15.46
2023-02-17T10:26:09.186Z,15.49
2023-02-17T10:29:04.722Z,15.52
2023-02-17T10:31:41.562Z,15.53
2023-02-17T10:34:26.402Z,15.58
2023-02-17T10:37:01.024Z,15.62
2023-02-17T10:39:50.175Z,15.68
2023-02-17T10:42:30.119Z,15.73
2023-02-17T10:45:10.640Z,15.86
2023-02-17T10:47:40.024Z,15.95
2023-02-17T10:50:19.382Z,16.07
2023-02-17T10:52:46.323Z,16.10
2023-02-17T10:55:40.661Z,16.16
2023-02-17T10:58:15.558Z,16.15
2023-02-17T11:00:43.008Z,16.27
2023-02-17T11:03:21.180Z,16.29
2023-02-17T11:05:57.763Z,16.25
2023-02-17T11:08:30.381Z,16.27
2023-02-17T11:11:05.650Z,16.31
2023-02-17T11:13:43.812Z,16.26
2023-02-17T11:16:32.360Z,16.29
2023-02-17T11:19:00.931Z,16.21
2023-02-17T11:21:33.129Z,16.34
2023-02-17T11:24:03.936Z,16.34
2023-02-17T11:26:34.870Z,16.25
2023-02-17T11:29:17.546Z,16.30
2023-02-17T11:32:08.962Z,16.26
2023-02-17T11:34:39.375Z,16.35
2023-02-17T11:37:21.850Z,16.32
2023-02-17T11:39:50.982Z,16.31
2023-02-17T11:42:30.355Z,16.29
2023-02-17T11:44:59.493Z,16.22
2023-02-17T11:47:38.153Z,16.23
2023-02-17T11:50:41.299Z,16.21
2023-02-17T11:53:23.433Z,16.28
2023-02-17T11:56:11.704Z,16.33
2023-02-17T11:58:44.425Z,16.38
2023-02-17T12:01:52.526Z,16.46
2023-02-17T12:04:32.694Z,16.41
2023-02-17T12:07:17.983Z,16.42
2023-02-17T12:09:56.026Z,16.42
2023-02-17T12:12:55.466Z,16.27
2023-02-17T12:15:22.078Z,16.27
2023-02-17T12:18:14.882Z,16.24
2023-02-17T12:20:45.647Z,16.29
2023-02-17T12:23:35.945Z,16.34
2023-02-17T12:26:43.927Z,16.33
2023-02-17T12:29:25.773Z,16.36
2023-02-17T12:31:58.691Z,16.32
2023-02-17T12:34:52.788Z,16.32
2023-02-17T12:37:24.555Z,16.34
2023-02-17T12:39:53.843Z,16.38
2023-02-17T12:42:27.054Z,16.47
2023-02-17T12:45:02.727Z,16.48
2023-02-17T12:47:45.004Z,16.47
2023-02-17T12:50:23.850Z,16.41
2023-02-17T12:52:55.378Z,16.44
2023-02-17T12:55:27.879Z,16.48
2023-02-17T12:58:07.862Z,16.63
2023-02-17T13:00:43.603Z,16.75
2023-02-17T13:03:10.982Z,16.71
2023-02-17T13:05:52.289Z,16.81
2023-02-17T13:08:25.256Z,16.91
2023-02-17T13:11:04.109Z,16.97
2023-02-17T13:13:33.788Z,17.03
2023-02-17T13:16:13.146Z,17.13
2023-02-17T13:18:43.013Z,17.13
2023-02-17T13:21:31.833Z,17.12
2023-02-17T13:24:03.157Z,17.17
2023-02-17T13:26:32.611Z,17.08
2023-02-17T13:29:24.177Z,17.05
2023-02-17T13:31:55.354Z,17.00
2023-02-17T13:34:29.341Z,16.92
2023-02-17T13:36:56.917Z,16.84
2023-02-17T13:39:29.537Z,16.80
2023-02-17T13:41:59.138Z,16.90
2023-02-17T13:44:28.912Z,16.98
2023-02-17T13:47:06.587Z,16.93
2023-02-17T13:49:35.047Z,17.00
2023-02-17T13:52:19.019Z,17.00
2023-02-17T13:55:01.693Z,16.99
2023-02-17T13:57:29.810Z,16.88
2023-02-17T14:00:20.076Z,16.90
2023-02-17T14:02:53.121Z,16.84
2023-02-17T14:05:37.183Z,16.75
2023-02-17T14:08:11.878Z,16.75
2023-02-17T14:10:38.745Z,16.76
2023-02-17T14:13:10.376Z,16.69
2023-02-17T14:15:37.974Z,16.69
2023-02-17T14:18:15.827Z,16.62
2023-02-17T14:20:42.790Z,16.55
2023-02-17T14:23:15.802Z,16.48
2023-02-17T14:25:46.557Z,16.52
2023-02-17T14:28:28.364Z,16.47
2023-02-17T14:30:55.074Z,16.43
2023-02-17T14:33:24.417Z,16.48
2023-02-17T14:36:04.402Z,16.59
2023-02-17T14:38:37.601Z,16.73
2023-02-17T14:41:05.698Z,16.73
2023-02-17T14:43:32.985Z,16.76
2023-02-17T14:45:59.755Z,16.67
2023-02-17T14:48:27.908Z,16.56
2023-02-17T14:50:56.979Z,16.50
2023-02-17T14:53:33.106Z,16.51
2023-02-17T14:56:06.603Z,16.47
2023-02-17T14:58:33.705Z,16.41
2023-02-17T15:01:00.640Z,16.36
2023-02-17T15:03:27.715Z,16.25
2023-02-17T15:05:54.919Z,16.22
2023-02-17T15:08:32.058Z,16.11
2023-02-17T15:10:59.173Z,16.13
2023-02-17T15:13:26.473Z,16.03
2023-02-17T15:15:53.941Z,15.95
2023-02-17T15:18:21.025Z,15.90
2023-02-17T15:20:50.274Z,15.90
2023-02-17T15:23:22.391Z,15.84
2023-02-17T15:25:49.700Z,15.78
2023-02-17T15:28:19.015Z,15.78
2023-02-17T15:30:51.459Z,15.74
2023-02-17T15:33:18.526Z,15.72
2023-02-17T15:35:51.018Z,15.66
2023-02-17T15:38:17.673Z,15.61
2023-02-17T15:40:44.378Z,15.56
2023-02-17T15:43:21.696Z,15.53
2023-02-17T15:45:48.951Z,15.45
2023-02-17T15:48:23.811Z,15.41
2023-02-17T15:50:51.103Z,15.35
2023-02-17T15:53:18.836Z,15.24
2023-02-17T15:55:46.764Z,15.21
2023-02-17T15:58:16.814Z,15.26
2023-02-17T16:00:46.311Z,15.24
2023-02-17T16:03:13.900Z,15.20
2023-02-17T16:05:41.412Z,15.16
2023-02-17T16:08:08.581Z,15.12
2023-02-17T16:10:36.074Z,15.09
2023-02-17T16:13:03.183Z,15.08
2023-02-17T16:15:32.733Z,15.02
2023-02-17T16:17:59.823Z,14.96
2023-02-17T16:20:30.107Z,14.93
2023-02-17T16:22:56.668Z,14.84
2023-02-17T16:25:23.628Z,14.73
2023-02-17T16:27:51.791Z,14.72
2023-02-17T16:30:23.167Z,14.70
2023-02-17T16:32:50.793Z,14.66
2023-02-17T16:35:20.193Z,14.52
2023-02-17T16:37:52.928Z,14.45
2023-02-17T16:40:22.223Z,14.38
2023-02-17T16:42:48.809Z,14.37
2023-02-17T16:45:24.409Z,14.32
2023-02-17T16:47:53.398Z,14.35
2023-02-17T16:50:40.088Z,14.33
2023-02-17T16:53:10.574Z,14.30
2023-02-17T16:55:37.316Z,14.27
2023-02-17T16:58:10.703Z,14.14
2023-02-17T17:00:37.172Z,14.12
2023-02-17T17:03:03.688Z,14.05
2023-02-17T17:05:31.000Z,14.06
2023-02-17T17:07:57.477Z,13.95
2023-02-17T17:10:31.212Z,13.95
2023-02-17T17:12:58.238Z,13.88
2023-02-17T17:15:25.601Z,13.86
2023-02-17T17:18:00.917Z,13.88
2023-02-17T17:20:31.949Z,13.82
2023-02-17T17:23:04.126Z,13.82
2023-02-17T17:25:30.856Z,13.71
2023-02-17T17:27:57.923Z,13.74
2023-02-17T17:30:27.688Z,13.70
2023-02-17T17:32:54.158Z,13.72
2023-02-17T17:35:21.343Z,13.65
2023-02-17T17:37:48.111Z,13.58
2023-02-17T17:40:17.040Z,13.60
2023-02-17T17:42:43.975Z,13.63
2023-02-17T17:45:12.620Z,13.60
2023-02-17T17:47:40.031Z,13.55
2023-02-17T17:50:11.066Z,13.59
2023-02-17T17:52:38.477Z,13.58
2023-02-17T17:55:05.304Z,13.58
2023-02-17T17:57:31.788Z,13.56
2023-02-17T17:59:58.298Z,13.58
2023-02-17T18:02:24.927Z,13.57
2023-02-17T18:04:51.711Z,13.53
2023-02-17T18:07:18.388Z,13.72
2023-02-17T18:09:47.903Z,13.75
2023-02-17T18:12:15.896Z,13.82
2023-02-17T18:14:43.846Z,13.80
2023-02-17T18:17:12.690Z,13.67
2023-02-17T18:19:40.277Z,13.55
2023-02-17T18:22:07.215Z,13.51
2023-02-17T18:24:33.792Z,13.51
2023-02-17T18:27:00.256Z,13.40
2023-02-17T18:29:27.631Z,13.48
2023-02-17T18:31:54.270Z,13.47
2023-02-17T18:34:20.973Z,13.31
2023-02-17T18:36:47.406Z,13.23
2023-02-17T18:39:13.894Z,13.26
2023-02-17T18:41:40.494Z,13.20
2023-02-17T18:44:07.363Z,13.25
2023-02-17T18:46:34.091Z,13.23
2023-02-17T18:49:00.686Z,13.22
2023-02-17T18:51:27.705Z,13.22
2023-02-17T18:53:56.448Z,13.26
2023-02-17T18:56:26.817Z,13.18
2023-02-17T18:58:55.120Z,13.22
2023-02-17T19:01:28.213Z,13.17
2023-02-17T19:03:55.204Z,13.19
2023-02-17T19:06:24.941Z,13.19
2023-02-17T19:08:52.596Z,13.21
2023-02-17T19:11:20.883Z,13.19
2023-02-17T19:13:47.663Z,13.20
2023-02-17T19:16:20.627Z,13.21
2023-02-17T19:18:47.333Z,13.17
2023-02-17T19:21:14.443Z,13.20
2023-02-17T19:23:41.688Z,13.15
2023-02-17T19:26:10.118Z,13.15
2023-02-17T19:28:37.481Z,13.16
2023-02-17T19:31:12.944Z,13.19
2023-02-17T19:33:39.803Z,13.12
2023-02-17T19:36:11.698Z,13.12
2023-02-17T19:38:38.246Z,13.11
2023-02-17T19:41:06.781Z,13.06
2023-02-17T19:43:33.585Z,13.03
2023-02-17T19:46:00.601Z,13.08
2023-02-17T19:48:27.446Z,13.04
2023-02-17T19:51:05.468Z,13.06
2023-02-17T19:53:33.153Z,13.05
2023-02-17T19:56:22.626Z,13.04
2023-02-17T19:58:49.804Z,13.01
2023-02-17T20:01:19.349Z,13.03
2023-02-17T20:03:46.090Z,12.99
2023-02-17T20:06:22.186Z,12.94
2023-02-17T20:08:54.366Z,12.95
2023-02-17T20:11:24.574Z,12.92
2023-02-17T20:13:51.064Z,12.65
2023-02-17T20:16:18.198Z,12.88
2023-02-17T20:18:48.047Z,12.87
2023-02-17T20:21:18.294Z,12.80
2023-02-17T20:23:45.149Z,12.87
2023-02-17T20:26:15.217Z,12.87
2023-02-17T20:28:42.306Z,12.86
2023-02-17T20:31:09.867Z,12.84
2023-02-17T20:33:37.125Z,12.87
2023-02-17T20:36:05.247Z,12.82
2023-02-17T20:38:31.939Z,12.85
2023-02-17T20:40:59.236Z,12.86
2023-02-17T20:43:25.951Z,12.87
2023-02-17T20:45:53.275Z,12.79
2023-02-17T20:48:20.588Z,12.84
2023-02-17T20:50:47.694Z,12.83
2023-02-17T20:53:14.223Z,12.81
2023-02-17T20:55:40.802Z,12.86
2023-02-17T20:58:07.434Z,12.86
2023-02-17T21:00:34.101Z,12.86
2023-02-17T21:03:00.748Z,12.86
2023-02-17T21:05:27.345Z,12.82
2023-02-17T21:07:56.127Z,12.83
2023-02-17T21:10:25.949Z,12.83
2023-02-17T21:12:52.814Z,12.87
2023-02-17T21:15:19.590Z,12.86
2023-02-17T21:17:46.433Z,12.81
2023-02-17T21:20:16.927Z,12.82
2023-02-17T21:22:43.565Z,12.80
2023-02-17T21:25:11.022Z,12.72
2023-02-17T21:27:37.980Z,12.81
2023-02-17T21:30:06.528Z,12.82
2023-02-17T21:32:33.020Z,12.88
2023-02-17T21:34:59.484Z,12.81
2023-02-17T21:37:26.060Z,12.78
2023-02-17T21:39:52.569Z,12.78
2023-02-17T21:42:39.096Z,12.82
2023-02-17T21:45:05.915Z,12.81
2023-02-17T21:47:33.156Z,12.83
2023-02-17T21:49:59.735Z,12.78
2023-02-17T21:52:26.259Z,12.77
2023-02-17T21:54:55.638Z,12.79
2023-02-17T21:57:22.112Z,12.70
2023-02-17T21:59:48.603Z,12.75
2023-02-17T22:02:15.755Z,12.74
2023-02-17T22:04:42.285Z,12.73
2023-02-17T22:07:17.043Z,12.70
2023-02-17T22:09:43.590Z,12.70
2023-02-17T22:12:10.090Z,12.75
2023-02-17T22:14:36.583Z,12.75
2023-02-17T22:17:03.253Z,12.71
2023-02-17T22:19:31.449Z,12.76
2023-02-17T22:21:58.404Z,12.75
2023-02-17T22:24:27.060Z,12.70
2023-02-17T22:26:54.418Z,12.65
2023-02-17T22:29:21.149Z,12.72
2023-02-17T22:31:48.102Z,12.70
2023-02-17T22:34:15.403Z,12.67
2023-02-17T22:36:41.899Z,12.70
2023-02-17T22:39:08.652Z,12.75
2023-02-17T22:41:35.869Z,12.71
2023-02-17T22:44:03.226Z,12.69
2023-02-17T22:46:29.829Z,12.71
2023-02-17T22:48:57.268Z,12.69
2023-02-17T22:51:27.336Z,12.73
2023-02-17T22:53:53.881Z,12.74
2023-02-17T22:56:20.633Z,12.74
2023-02-17T22:58:47.578Z,12.75
2023-02-17T23:01:20.533Z,12.73
2023-02-17T23:03:51.789Z,12.69
2023-02-17T23:06:22.768Z,12.70
2023-02-17T23:08:50.449Z,12.75
2023-02-17T23:11:39.737Z,12.73
2023-02-17T23:14:07.271Z,12.75
2023-02-17T23:16:34.136Z,12.76
2023-02-17T23:19:00.748Z,12.69
2023-02-17T23:21:27.427Z,12.65
2023-02-17T23:23:53.986Z,12.66
2023-02-17T23:26:20.525Z,12.61
2023-02-17T23:28:46.999Z,12.63
2023-02-17T23:31:13.591Z,12.60
2023-02-17T23:33:40.140Z,12.62
2023-02-17T23:36:07.715Z,12.62
2023-02-17T23:38:34.599Z,12.54
2023-02-17T23:41:01.385Z,12.58
2023-02-17T23:43:28.627Z,12.54
2023-02-17T23:45:56.476Z,12.57
2023-02-17T23:48:23.505Z,12.46
2023-02-17T23:51:00.926Z,12.54
2023-02-17T23:53:28.013Z,12.55
2023-02-17T23:56:06.530Z,12.57
2023-02-17T23:58:34.736Z,12.56
